Time;durP1;ratioP1;P1;durP2;ratioP2;P2;SDS_P1;SDS_P2;PMS_P1;PMS_P2;Temp;Humidity;BMP_temperature;BMP_pressure;BME280_temperature;BME280_humidity;BME280_pressure;Samples;Min_cycle;Max_cycle;Signal;HPM_P1;HPM_P2
2021/04/18 00:00:16;;;;;;;1.17;0.80;;;;;;;4.72;96.26;100947.81;1751761;81;21147;-42
2021/04/18 00:02:44;;;;;;;0.00;0.00;;;;;;;4.69;96.30;100948.25;1752669;81;21160;-41
2021/04/18 00:05:12;;;;;;;0.20;0.20;;;;;;;4.65;96.33;100947.58;1737043;81;21029;-43
2021/04/18 00:07:40;;;;;;;0.60;0.60;;;;;;;4.57;96.44;100949.25;1732508;82;21118;-41
2021/04/18 00:10:10;;;;;;;0.30;0.30;;;;;;;4.51;96.50;100950.99;1736751;81;21165;-41
2021/04/18 00:12:39;;;;;;;0.90;0.90;;;;;;;4.42;96.58;100950.45;1732587;82;21205;-41
2021/04/18 00:15:11;;;;;;;0.10;0.10;;;;;;;4.38;96.77;100951.16;1732517;81;21102;-41
2021/04/18 00:17:40;;;;;;;0.45;0.20;;;;;;;4.34;96.90;100941.83;1732617;82;21122;-42
2021/04/18 00:20:12;;;;;;;0.23;0.23;;;;;;;4.28;97.04;100947.09;1732500;81;21102;-41
2021/04/18 00:22:40;;;;;;;0.45;0.28;;;;;;;4.24;97.21;100951.30;1732595;82;21145;-41
2021/04/18 00:25:09;;;;;;;0.75;0.75;;;;;;;4.21;97.37;100948.23;1732783;81;21173;-41
2021/04/18 00:27:37;;;;;;;0.35;0.35;;;;;;;4.18;97.50;100946.80;1732633;82;21161;-41
2021/04/18 00:30:08;;;;;;;0.20;0.20;;;;;;;4.20;97.66;100946.55;1732664;81;21137;-41
2021/04/18 00:32:37;;;;;;;1.07;0.82;;;;;;;4.18;97.78;100946.80;1732164;82;21145;-41
2021/04/18 00:35:06;;;;;;;1.47;0.40;;;;;;;4.18;97.95;100947.30;1732623;82;21109;-44
2021/04/18 00:37:34;;;;;;;0.03;0.03;;;;;;;4.18;98.08;100940.53;1732683;82;21130;-41
2021/04/18 00:40:08;;;;;;;1.15;0.53;;;;;;;4.18;98.23;100944.09;1732424;82;21162;-41
2021/04/18 00:42:36;;;;;;;0.80;0.80;;;;;;;4.20;98.32;100941.97;1732421;82;21113;-41
2021/04/18 00:45:06;;;;;;;0.10;0.10;;;;;;;4.20;98.43;100941.97;1732705;81;21166;-43
2021/04/18 00:47:34;;;;;;;0.30;0.30;;;;;;;4.21;98.57;100945.52;1732675;82;21161;-41
2021/04/18 00:50:04;;;;;;;0.57;0.57;;;;;;;4.20;98.66;100944.67;1732692;81;21609;-40
2021/04/18 00:52:32;;;;;;;0.65;0.65;;;;;;;4.20;98.69;100938.44;1732499;82;21130;-41
2021/04/18 00:54:59;;;;;;;0.47;0.47;;;;;;;4.18;98.69;100942.74;1732320;82;21138;-42
2021/04/18 00:57:27;;;;;;;0.00;0.00;;;;;;;4.17;98.71;100941.07;1732277;82;21204;-41
2021/04/18 00:59:55;;;;;;;0.10;0.10;;;;;;;4.16;98.82;100939.43;1700986;82;21133;-41
2021/04/18 01:02:22;;;;;;;0.10;0.10;;;;;;;4.15;98.93;100938.29;1701637;82;21635;-41
2021/04/18 01:04:50;;;;;;;0.25;0.25;;;;;;;4.16;99.02;100946.19;1732262;82;21157;-41
2021/04/18 01:07:18;;;;;;;0.00;0.00;;;;;;;4.16;99.03;100943.48;1732295;81;21113;-41
2021/04/18 01:09:46;;;;;;;0.13;0.13;;;;;;;4.18;99.04;100949.50;1732538;82;21439;-41
2021/04/18 01:12:14;;;;;;;0.23;0.23;;;;;;;4.20;99.08;100939.79;1732840;82;21133;-41
2021/04/18 01:14:42;;;;;;;0.25;0.25;;;;;;;4.24;99.09;100940.47;1732760;82;21133;-42
2021/04/18 01:17:10;;;;;;;0.13;0.13;;;;;;;4.29;98.97;100939.80;1732535;82;21588;-42
2021/04/18 01:19:38;;;;;;;0.25;0.25;;;;;;;4.33;98.88;100942.37;1732744;81;21117;-43
2021/04/18 01:22:06;;;;;;;0.30;0.30;;;;;;;4.37;98.75;100944.08;1732655;82;21441;-42
2021/04/18 01:24:54;;;;;;;0.17;0.17;;;;;;;4.41;98.64;100937.17;1748302;81;21188;-40
2021/04/18 01:27:46;;;;;;;0.13;0.13;;;;;;;4.49;98.45;100928.73;1847657;76;22225;-40
2021/04/18 01:30:17;;;;;;;0.10;0.10;;;;;;;4.49;98.33;100935.50;1797535;78;21123;-40
2021/04/18 01:32:48;;;;;;;0.20;0.20;;;;;;;4.50;98.20;100932.58;1783592;80;21138;-40
2021/04/18 01:35:16;;;;;;;0.40;0.40;;;;;;;4.52;98.08;100923.72;1725316;81;20976;-40
2021/04/18 01:37:46;;;;;;;0.53;0.53;;;;;;;4.54;97.96;100931.59;1754982;81;21663;-41
2021/04/18 01:40:16;;;;;;;0.25;0.25;;;;;;;4.57;97.87;100927.06;1754737;80;21102;-40
2021/04/18 01:42:46;;;;;;;0.15;0.15;;;;;;;4.60;97.76;100933.40;1772849;80;21114;-39
2021/04/18 01:45:14;;;;;;;0.08;0.08;;;;;;;4.62;97.62;100922.33;1785810;80;21158;-41
2021/04/18 01:47:42;;;;;;;0.33;0.33;;;;;;;4.64;97.55;100916.98;1784682;80;21131;-41
2021/04/18 01:50:13;;;;;;;0.35;0.35;;;;;;;4.67;97.44;100917.05;1783656;78;21111;-40
2021/04/18 01:52:41;;;;;;;0.25;0.25;;;;;;;4.69;97.34;100914.41;1747879;82;21647;-40
2021/04/18 01:55:10;;;;;;;0.30;0.30;;;;;;;4.72;97.23;100907.20;1727542;81;21114;-40
2021/04/18 01:57:39;;;;;;;0.00;0.00;;;;;;;4.72;97.11;100903.14;1701400;82;21185;-40
2021/04/18 02:00:09;;;;;;;0.33;0.33;;;;;;;4.73;97.01;100895.31;1730183;82;21752;-39
2021/04/18 02:02:44;;;;;;;0.28;0.20;;;;;;;4.76;96.93;100894.56;1729097;82;21977;-40
2021/04/18 02:05:17;;;;;;;0.17;0.17;;;;;;;4.78;96.82;100897.86;1728859;82;20990;-40
2021/04/18 02:07:45;;;;;;;0.50;0.50;;;;;;;4.80;96.72;100905.20;1730413;82;21145;-40
2021/04/18 02:10:14;;;;;;;0.30;0.30;;;;;;;4.81;96.59;100900.92;1701737;82;21169;-40
2021/04/18 02:12:44;;;;;;;0.20;0.20;;;;;;;4.87;96.40;100900.52;1730552;82;21018;-41
2021/04/18 02:15:14;;;;;;;1.35;1.15;;;;;;;4.91;96.19;100901.73;1730551;82;21565;-41
2021/04/18 02:17:42;;;;;;;0.47;0.45;;;;;;;4.92;96.03;100900.66;1730563;82;21125;-40
2021/04/18 02:20:15;;;;;;;0.40;0.40;;;;;;;4.92;95.91;100904.72;1730659;81;21126;-40
2021/04/18 02:22:41;;;;;;;0.50;0.50;;;;;;;4.91;95.76;100902.55;1730690;82;21545;-40
2021/04/18 02:25:11;;;;;;;0.25;0.25;;;;;;;4.93;95.59;100902.33;1722272;81;20984;-40
2021/04/18 02:27:39;;;;;;;0.88;0.88;;;;;;;4.94;95.47;100894.48;1724691;82;21145;-41
2021/04/18 02:30:10;;;;;;;0.53;0.53;;;;;;;4.91;95.40;100893.59;1731198;82;21086;-40
2021/04/18 02:32:41;;;;;;;0.78;0.78;;;;;;;4.91;95.34;100890.89;1731715;82;21182;-41
2021/04/18 02:35:11;;;;;;;0.13;0.13;;;;;;;4.90;95.26;100901.44;1695892;83;21154;-42
2021/04/18 02:37:38;;;;;;;0.30;0.30;;;;;;;4.91;95.16;100899.02;1732673;82;21541;-40
2021/04/18 02:40:07;;;;;;;0.53;0.53;;;;;;;4.91;95.04;100901.73;1701286;82;21134;-40
2021/04/18 02:42:36;;;;;;;0.10;0.10;;;;;;;4.92;94.92;100897.95;1732331;82;21513;-40
2021/04/18 02:45:09;;;;;;;0.15;0.13;;;;;;;4.93;94.78;100895.02;1732353;82;21846;-40
2021/04/18 02:47:38;;;;;;;;;;;;;;;4.95;94.62;100901.03;1734012;82;21599;-40
2021/04/18 02:50:08;;;;;;;0.40;0.33;;;;;;;4.96;94.52;100902.67;1732306;82;20264;-40
2021/04/18 02:52:36;;;;;;;0.55;0.55;;;;;;;4.97;94.45;100910.30;1732364;82;21441;-40
2021/04/18 02:55:06;;;;;;;0.30;0.30;;;;;;;4.98;94.35;100916.00;1732416;81;21154;-40
2021/04/18 02:57:36;;;;;;;0.10;0.10;;;;;;;4.99;94.28;100913.58;1731639;82;21169;-42
2021/04/18 03:00:05;;;;;;;0.35;0.35;;;;;;;5.00;94.26;100919.31;1732346;81;21146;-40
2021/04/18 03:02:35;;;;;;;0.80;0.33;;;;;;;4.98;94.25;100920.06;1732219;82;21153;-41
2021/04/18 03:05:04;;;;;;;0.00;0.00;;;;;;;4.97;94.28;100919.77;1732335;82;21141;-42
2021/04/18 03:07:33;;;;;;;0.42;0.42;;;;;;;4.98;94.25;100921.95;1732164;82;21149;-41
2021/04/18 03:10:04;;;;;;;0.17;0.17;;;;;;;4.97;94.21;100917.06;1732291;82;21172;-40
2021/04/18 03:12:32;;;;;;;0.42;0.42;;;;;;;4.97;94.17;100921.13;1732386;82;21500;-40
2021/04/18 03:15:00;;;;;;;0.72;0.30;;;;;;;4.97;94.12;100922.48;1732439;82;21175;-44
2021/04/18 03:17:28;;;;;;;0.90;0.80;;;;;;;4.98;94.10;100924.13;1732414;82;21165;-44
2021/04/18 03:19:57;;;;;;;0.80;0.78;;;;;;;4.99;94.07;100920.34;1700195;82;21556;-44
2021/04/18 03:22:25;;;;;;;0.10;0.10;;;;;;;5.00;94.03;100918.48;1701369;82;21153;-44
2021/04/18 03:24:53;;;;;;;0.10;0.10;;;;;;;5.01;94.05;100920.95;1732386;81;21674;-44
2021/04/18 03:27:21;;;;;;;1.00;0.47;;;;;;;5.02;93.99;100913.13;1732022;81;21157;-44
2021/04/18 03:29:50;;;;;;;0.00;0.00;;;;;;;5.04;93.97;100921.83;1731895;82;21157;-44
2021/04/18 03:32:18;;;;;;;0.62;0.30;;;;;;;5.06;93.96;100920.26;1732302;82;21161;-44
2021/04/18 03:34:46;;;;;;;1.55;0.85;;;;;;;5.07;93.90;100915.97;1701353;82;21568;-44
2021/04/18 03:37:14;;;;;;;0.10;0.10;;;;;;;5.08;93.85;100918.97;1701092;82;21668;-44
2021/04/18 03:39:42;;;;;;;0.20;0.20;;;;;;;5.10;93.74;100914.16;1732247;81;21126;-44
2021/04/18 03:42:10;;;;;;;0.00;0.00;;;;;;;5.13;93.67;100916.39;1732222;82;21568;-44
2021/04/18 03:44:39;;;;;;;0.20;0.20;;;;;;;5.15;93.59;100918.87;1732208;82;21414;-44
2021/04/18 03:47:07;;;;;;;0.68;0.68;;;;;;;5.16;93.59;100915.09;1701198;82;21166;-44
2021/04/18 03:49:36;;;;;;;2.05;0.62;;;;;;;5.16;93.56;100914.56;1730765;82;21811;-44
2021/04/18 03:52:07;;;;;;;1.17;1.17;;;;;;;5.18;93.52;100918.41;1731019;82;21133;-44
2021/04/18 03:54:34;;;;;;;0.47;0.47;;;;;;;5.20;93.60;100910.05;1732319;81;21142;-44
2021/04/18 03:57:03;;;;;;;0.30;0.25;;;;;;;5.24;93.64;100903.09;1701349;82;21158;-44
2021/04/18 03:59:31;;;;;;;1.02;0.65;;;;;;;5.26;93.75;100906.41;1732294;81;21114;-44
2021/04/18 04:01:59;;;;;;;0.23;0.23;;;;;;;5.29;93.76;100903.22;1701094;82;21592;-44
2021/04/18 04:04:27;;;;;;;0.40;0.40;;;;;;;5.34;93.71;100901.98;1732210;81;21162;-44
2021/04/18 04:06:55;;;;;;;0.65;0.20;;;;;;;5.38;93.69;100899.12;1732310;82;21147;-44
2021/04/18 04:09:26;;;;;;;0.08;0.08;;;;;;;5.45;93.75;100900.38;1732104;82;21130;-44
2021/04/18 04:11:55;;;;;;;1.20;1.10;;;;;;;5.51;93.80;100900.77;1732372;82;21441;-44
2021/04/18 04:14:25;;;;;;;0.65;0.65;;;;;;;5.56;93.78;100899.03;1731159;82;21153;-44
2021/04/18 04:16:55;;;;;;;0.55;0.40;;;;;;;5.63;93.72;100900.78;1732168;82;21186;-44
2021/04/18 04:19:25;;;;;;;0.10;0.10;;;;;;;5.68;93.61;100890.05;1731574;82;21162;-44
2021/04/18 04:22:10;;;;;;;0.40;0.40;;;;;;;5.75;93.53;100888.05;1732221;82;21109;-44
2021/04/18 04:24:51;;;;;;;0.10;0.10;;;;;;;5.79;93.31;100894.66;1732303;82;21122;-44
2021/04/18 04:27:19;;;;;;;1.95;0.90;;;;;;;5.80;93.17;100891.70;1732288;81;21146;-44
2021/04/18 04:29:48;;;;;;;6.20;1.60;;;;;;;5.83;93.08;100889.04;1732175;81;21118;-44
2021/04/18 04:32:15;;;;;;;5.05;1.77;;;;;;;5.84;93.11;100881.75;1732300;82;21568;-44
2021/04/18 04:34:43;;;;;;;2.85;1.27;;;;;;;5.88;93.33;100874.23;1732292;81;21635;-44
2021/04/18 04:37:11;;;;;;;0.20;0.20;;;;;;;5.94;93.29;100874.69;1732140;82;21157;-44
2021/04/18 04:39:39;;;;;;;0.35;0.35;;;;;;;6.02;93.24;100863.45;1732503;82;21189;-44
2021/04/18 04:42:07;;;;;;;0.40;0.40;;;;;;;6.12;93.24;100860.67;1732537;82;21206;-44
2021/04/18 04:44:34;;;;;;;1.17;0.68;;;;;;;6.22;93.18;100856.80;1732704;81;21153;-44
2021/04/18 04:47:02;;;;;;;0.10;0.10;;;;;;;6.33;92.97;100869.53;1732559;82;21127;-44
2021/04/18 04:49:30;;;;;;;0.78;0.78;;;;;;;6.45;92.90;100865.40;1732738;81;21161;-44
2021/04/18 04:51:58;;;;;;;0.85;0.42;;;;;;;6.57;92.65;100863.46;1732689;82;21170;-44
2021/04/18 04:54:26;;;;;;;2.02;1.90;;;;;;;6.70;92.35;100868.31;1732415;81;21134;-44
2021/04/18 04:56:55;;;;;;;0.30;0.28;;;;;;;6.85;92.09;100864.53;1732544;82;21237;-44
2021/04/18 04:59:23;;;;;;;0.68;0.68;;;;;;;7.00;91.74;100861.27;1732600;81;21090;-44
2021/04/18 05:01:50;;;;;;;1.60;0.62;;;;;;;7.15;91.35;100853.36;1732477;82;21217;-44
2021/04/18 05:04:18;;;;;;;0.20;0.20;;;;;;;7.29;90.94;100854.69;1732603;81;21430;-45
2021/04/18 05:06:45;;;;;;;0.70;0.68;;;;;;;7.45;90.49;100857.09;1732494;82;21169;-44
2021/04/18 05:09:13;;;;;;;0.33;0.33;;;;;;;7.58;89.85;100854.56;1732348;81;21556;-44
2021/04/18 05:11:42;;;;;;;0.15;0.15;;;;;;;7.71;89.35;100858.28;1732157;82;21489;-44
2021/04/18 05:14:10;;;;;;;1.95;1.17;;;;;;;7.84;88.53;100858.48;1732208;82;21178;-44
2021/04/18 05:16:38;;;;;;;0.93;0.72;;;;;;;7.96;87.86;100855.62;1701097;82;21601;-44
2021/04/18 05:19:05;;;;;;;1.40;1.05;;;;;;;8.08;87.34;100861.77;1732091;81;21146;-44
2021/04/18 05:21:33;;;;;;;0.42;0.42;;;;;;;8.21;86.87;100862.47;1732262;82;21210;-44
2021/04/18 05:24:01;;;;;;;0.80;0.60;;;;;;;8.30;86.19;100858.23;1732307;81;21695;-44
2021/04/18 05:26:31;;;;;;;1.72;1.35;;;;;;;8.36;85.51;100852.60;1732209;82;21517;-44
2021/04/18 05:28:59;;;;;;;1.30;1.20;;;;;;;8.45;85.36;100854.34;1726950;81;21271;-45
2021/04/18 05:31:27;;;;;;;0.88;0.88;;;;;;;8.58;84.97;100851.76;1727053;82;21193;-44
2021/04/18 05:33:54;;;;;;;1.75;1.60;;;;;;;8.75;84.74;100863.92;1727158;83;21134;-44
2021/04/18 05:36:22;;;;;;;0.80;0.72;;;;;;;8.90;84.11;100857.28;1726866;82;21119;-44
2021/04/18 05:38:49;;;;;;;2.62;0.72;;;;;;;9.04;83.72;100854.94;1725075;81;21139;-44
2021/04/18 05:41:17;;;;;;;3.08;0.82;;;;;;;9.15;82.65;100859.41;1725812;83;21161;-44
2021/04/18 05:43:46;;;;;;;1.35;1.25;;;;;;;9.21;82.02;100868.45;1721197;82;20991;-44
2021/04/18 05:46:14;;;;;;;1.40;0.98;;;;;;;9.25;81.31;100875.86;1701149;83;21593;-44
2021/04/18 05:48:42;;;;;;;4.85;1.98;;;;;;;9.23;80.76;100873.11;1726883;83;21162;-44
2021/04/18 05:51:10;;;;;;;0.70;0.70;;;;;;;9.21;80.33;100879.36;1709668;83;21696;-44
2021/04/18 05:53:38;;;;;;;1.05;1.05;;;;;;;9.16;80.43;100875.23;1726699;82;21118;-44
2021/04/18 05:56:07;;;;;;;1.07;0.98;;;;;;;9.13;80.58;100879.84;1726796;82;21189;-44
2021/04/18 05:58:34;;;;;;;2.80;1.98;;;;;;;9.15;80.68;100881.23;1726802;83;21141;-44
2021/04/18 06:01:02;;;;;;;3.12;2.47;;;;;;;9.17;80.83;100876.34;1724345;83;21148;-44
2021/04/18 06:03:30;;;;;;;0.50;0.50;;;;;;;9.19;80.34;100879.61;1706499;84;21158;-44
2021/04/18 06:05:58;;;;;;;1.57;0.80;;;;;;;9.18;80.39;100876.61;1707096;82;21150;-44
2021/04/18 06:08:26;;;;;;;1.17;0.72;;;;;;;9.21;80.11;100865.72;1725105;83;21142;-44
2021/04/18 06:10:53;;;;;;;1.37;0.85;;;;;;;9.28;79.99;100870.97;1725492;83;21168;-45
2021/04/18 06:13:22;;;;;;;3.22;2.08;;;;;;;9.33;80.04;100870.45;1726042;83;21130;-44
2021/04/18 06:15:53;;;;;;;0.72;0.72;;;;;;;9.41;79.87;100862.33;1727066;81;21544;-45
2021/04/18 06:18:21;;;;;;;2.27;2.15;;;;;;;9.55;79.67;100861.35;1695909;83;22046;-44
2021/04/18 06:20:49;;;;;;;0.33;0.33;;;;;;;9.72;79.38;100848.36;1687135;83;21129;-44
2021/04/18 06:23:16;;;;;;;2.42;1.37;;;;;;;9.90;78.71;100847.91;1697762;83;21441;-44
2021/04/18 06:25:43;;;;;;;0.82;0.82;;;;;;;10.06;78.29;100849.34;1727281;81;21146;-44
2021/04/18 06:28:11;;;;;;;4.03;2.30;;;;;;;10.17;77.65;100852.95;1729065;81;21189;-44
2021/04/18 06:30:39;;;;;;;1.22;1.20;;;;;;;10.31;76.87;100860.42;1732246;82;21145;-44
2021/04/18 06:33:07;;;;;;;2.92;1.15;;;;;;;10.37;75.88;100854.97;1732114;81;21209;-44
2021/04/18 06:35:35;;;;;;;1.25;1.15;;;;;;;10.33;75.24;100845.92;1748996;81;21154;-44
2021/04/18 06:38:02;;;;;;;1.77;1.67;;;;;;;10.30;75.04;100840.19;1744320;81;21126;-44
2021/04/18 06:40:30;;;;;;;2.45;1.95;;;;;;;10.32;75.16;100848.39;1748157;81;21111;-44
2021/04/18 06:42:58;;;;;;;0.60;0.40;;;;;;;10.42;75.48;100846.80;1750555;81;21163;-44
2021/04/18 06:45:26;;;;;;;2.20;1.17;;;;;;;10.59;74.75;100847.38;1749505;81;21138;-44
2021/04/18 06:47:53;;;;;;;0.90;0.90;;;;;;;10.74;74.39;100847.41;1747643;81;21117;-44
2021/04/18 06:50:21;;;;;;;1.30;1.22;;;;;;;10.93;73.96;100848.27;1748479;80;21080;-44
2021/04/18 06:52:49;;;;;;;2.12;1.80;;;;;;;11.15;73.58;100847.46;1716053;82;21204;-44
2021/04/18 06:55:17;;;;;;;1.62;1.52;;;;;;;11.39;72.48;100845.52;1749317;80;21177;-44
2021/04/18 06:57:45;;;;;;;2.20;1.32;;;;;;;11.63;71.44;100835.63;1732241;81;21162;-44
2021/04/18 07:00:14;;;;;;;2.65;1.87;;;;;;;11.87;70.67;100837.80;1737275;80;21145;-44
2021/04/18 07:02:41;;;;;;;0.85;0.53;;;;;;;12.00;70.11;100839.94;1694302;82;21008;-40
2021/04/18 07:05:11;;;;;;;1.05;1.05;;;;;;;12.18;69.91;100836.31;1729824;81;21121;-41
2021/04/18 07:07:42;;;;;;;2.27;1.85;;;;;;;12.29;68.91;100847.51;1729620;82;21141;-41
2021/04/18 07:10:13;;;;;;;2.22;1.07;;;;;;;12.34;67.66;100842.53;1728445;81;21135;-41
2021/04/18 07:12:42;;;;;;;0.70;0.70;;;;;;;12.52;68.76;100833.67;1724051;82;21143;-41
2021/04/18 07:15:11;;;;;;;1.55;1.10;;;;;;;12.82;66.80;100840.88;1679209;82;21107;-41
2021/04/18 07:17:47;;;;;;;0.82;0.82;;;;;;;13.08;64.23;100837.94;1650489;84;21150;-40
2021/04/18 07:20:17;;;;;;;0.70;0.47;;;;;;;13.26;64.29;100835.88;1693385;83;21178;-41
2021/04/18 07:22:46;;;;;;;2.42;1.60;;;;;;;13.48;63.88;100834.06;1694434;84;21157;-41
2021/04/18 07:25:14;;;;;;;2.25;1.75;;;;;;;13.65;62.64;100835.00;1722937;81;21529;-41
2021/04/18 07:27:50;;;;;;;1.65;1.55;;;;;;;13.68;62.40;100845.40;1730115;81;21628;-41
2021/04/18 07:30:22;;;;;;;1.50;0.68;;;;;;;13.47;61.26;100842.58;1706741;83;21718;-41
2021/04/18 07:33:04;;;;;;;1.00;0.93;;;;;;;13.19;62.23;100850.48;1667392;84;21446;-40
2021/04/18 07:35:39;;;;;;;1.37;1.12;;;;;;;13.15;62.95;100843.11;1718614;83;21157;-40
2021/04/18 07:38:28;;;;;;;1.40;1.30;;;;;;;13.13;62.45;100841.48;1727070;82;21145;-41
2021/04/18 07:41:17;;;;;;;1.30;1.22;;;;;;;12.93;62.42;100843.55;1694543;84;21172;-40
2021/04/18 07:43:46;;;;;;;1.35;1.25;;;;;;;12.68;62.75;100843.46;1723430;83;21620;-41
2021/04/18 07:46:14;;;;;;;2.42;0.60;;;;;;;12.57;63.59;100841.05;1696605;84;21612;-40
2021/04/18 07:48:43;;;;;;;2.33;1.50;;;;;;;12.53;63.54;100829.01;1705550;82;21202;-40
2021/04/18 07:51:12;;;;;;;2.80;1.52;;;;;;;12.66;64.10;100829.21;1706909;83;21154;-40
2021/04/18 07:53:42;;;;;;;0.70;0.50;;;;;;;12.91;64.40;100835.06;1707266;83;21145;-40
2021/04/18 07:56:10;;;;;;;0.70;0.70;;;;;;;12.93;63.55;100827.09;1661117;85;21195;-40
2021/04/18 07:58:42;;;;;;;1.67;1.57;;;;;;;12.76;63.12;100817.36;1678634;85;21157;-40
2021/04/18 08:01:10;;;;;;;1.95;0.70;;;;;;;12.66;62.81;100816.03;1678750;85;21186;-41
2021/04/18 08:03:41;;;;;;;4.28;1.95;;;;;;;12.63;63.13;100820.72;1682029;83;21194;-40
2021/04/18 08:06:10;;;;;;;;;;;;;;;12.68;62.56;100817.94;1680056;84;21181;-40
2021/04/18 08:08:47;;;;;;;2.05;1.95;;;;;;;12.67;62.41;100816.31;1683191;84;20275;-40
2021/04/18 08:11:16;;;;;;;0.93;0.85;;;;;;;12.66;63.01;100805.06;1718450;83;21153;-41
2021/04/18 08:13:48;;;;;;;3.70;1.05;;;;;;;12.65;62.57;100817.95;1704773;83;21150;-40
2021/04/18 08:16:29;;;;;;;1.87;1.77;;;;;;;12.55;63.11;100816.66;1724806;83;21545;-40
2021/04/18 08:19:08;;;;;;;2.55;2.00;;;;;;;12.45;62.73;100808.50;1703488;82;21150;-40
2021/04/18 08:21:39;;;;;;;2.47;1.90;;;;;;;12.39;63.59;100810.46;1723862;83;21564;-40
2021/04/18 08:24:19;;;;;;;1.77;0.80;;;;;;;12.39;63.64;100806.91;1723949;81;22233;-40
2021/04/18 08:27:14;;;;;;;0.70;0.70;;;;;;;12.55;64.09;100796.66;1807485;77;23390;-41
2021/04/18 08:30:03;;;;;;;1.25;1.15;;;;;;;12.71;63.32;100798.20;1777539;80;21425;-41
2021/04/18 08:32:46;;;;;;;0.20;0.20;;;;;;;12.91;64.23;100791.19;1777684;80;21133;-40
2021/04/18 08:35:17;;;;;;;0.80;0.78;;;;;;;13.09;62.82;100787.47;1770171;80;21605;-40
2021/04/18 08:37:45;;;;;;;2.37;1.30;;;;;;;13.14;62.03;100787.42;1776171;80;21196;-40
2021/04/18 08:40:13;;;;;;;2.80;1.37;;;;;;;13.19;62.07;100773.66;1774040;80;21194;-41
2021/04/18 08:42:41;;;;;;;1.65;1.37;;;;;;;13.36;62.28;100775.19;1739014;81;21175;-40
2021/04/18 08:45:09;;;;;;;1.52;1.42;;;;;;;13.62;60.53;100766.91;1741035;81;21226;-41
2021/04/18 08:47:40;;;;;;;1.37;1.32;;;;;;;13.94;60.17;100767.62;1740657;81;21143;-41
2021/04/18 08:50:10;;;;;;;0.80;0.80;;;;;;;14.23;58.68;100759.03;1715825;82;21163;-42
2021/04/18 08:52:38;;;;;;;2.12;1.57;;;;;;;14.44;57.30;100760.38;1727403;82;21170;-41
2021/04/18 08:55:10;;;;;;;1.02;1.02;;;;;;;14.37;55.94;100753.05;1738167;81;21106;-41
2021/04/18 08:57:38;;;;;;;0.82;0.82;;;;;;;14.36;56.81;100748.66;1723710;82;21166;-42
2021/04/18 09:00:11;;;;;;;0.85;0.37;;;;;;;14.51;57.09;100741.55;1714505;82;21154;-40
2021/04/18 09:02:38;;;;;;;1.27;0.47;;;;;;;14.66;55.47;100739.70;1715681;82;21134;-40
2021/04/18 09:05:12;;;;;;;2.12;0.70;;;;;;;14.66;54.38;100739.14;1718590;82;21123;-42
2021/04/18 09:07:43;;;;;;;;;;;;;;;14.70;54.39;100744.88;1714062;82;21151;-43
2021/04/18 09:10:12;;;;;;;0.40;0.40;;;;;;;14.73;54.05;100738.77;1713009;81;20269;-41
2021/04/18 09:12:40;;;;;;;0.62;0.62;;;;;;;14.83;53.88;100733.09;1708464;82;21205;-42
2021/04/18 09:15:09;;;;;;;0.88;0.80;;;;;;;14.98;53.80;100728.70;1738045;81;21166;-41
2021/04/18 09:17:37;;;;;;;1.90;1.42;;;;;;;15.16;53.39;100725.64;1705285;83;21234;-41
2021/04/18 09:20:08;;;;;;;0.60;0.60;;;;;;;15.20;53.07;100723.90;1717186;81;21213;-41
2021/04/18 09:22:40;;;;;;;0.82;0.60;;;;;;;15.17;52.69;100720.95;1736876;81;21170;-40
2021/04/18 09:25:14;;;;;;;0.45;0.45;;;;;;;15.03;52.02;100721.75;1704681;82;21218;-41
2021/04/18 09:27:50;;;;;;;1.35;0.98;;;;;;;14.81;51.93;100724.31;1660036;84;21452;-40
2021/04/18 09:30:26;;;;;;;0.50;0.50;;;;;;;14.62;52.82;100726.56;1695468;84;21172;-42
2021/04/18 09:33:04;;;;;;;1.65;1.55;;;;;;;14.72;52.66;100721.45;1871669;76;22672;-41
2021/04/18 09:35:31;;;;;;;0.85;0.82;;;;;;;14.71;52.07;100718.99;1803077;78;21135;-40
2021/04/18 09:38:03;;;;;;;2.75;1.30;;;;;;;14.62;52.84;100721.06;1738397;81;21506;-40
2021/04/18 09:40:36;;;;;;;0.50;0.45;;;;;;;14.68;52.82;100720.41;1775147;80;21123;-40
2021/04/18 09:43:07;;;;;;;0.20;0.20;;;;;;;14.86;53.01;100720.13;1753799;80;21537;-40
2021/04/18 09:45:34;;;;;;;1.45;0.45;;;;;;;15.04;52.06;100706.86;1746095;80;21146;-41
2021/04/18 09:48:15;;;;;;;1.25;0.60;;;;;;;15.19;50.93;100702.20;1765196;80;21122;-40
2021/04/18 09:50:59;;;;;;;0.62;0.55;;;;;;;15.21;50.41;100699.97;1770365;80;21157;-41
2021/04/18 09:53:27;;;;;;;1.17;0.55;;;;;;;15.17;50.09;100707.19;1784939;80;21135;-41
2021/04/18 09:56:05;;;;;;;0.33;0.33;;;;;;;15.20;51.63;100701.87;1787548;80;21154;-40
2021/04/18 09:58:41;;;;;;;1.02;0.65;;;;;;;15.34;49.89;100693.64;1763389;80;21158;-43
2021/04/18 10:01:32;;;;;;;0.35;0.35;;;;;;;15.44;50.30;100695.38;1834186;77;22763;-41
2021/04/18 10:03:59;;;;;;;1.37;0.68;;;;;;;15.33;48.90;100700.28;1802051;78;21336;-40
2021/04/18 10:06:44;;;;;;;3.05;1.12;;;;;;;15.20;49.04;100696.94;1738457;81;21147;-41
2021/04/18 10:09:14;;;;;;;2.60;1.02;;;;;;;15.07;49.62;100695.00;1734063;81;20996;-41
2021/04/18 10:11:59;;;;;;;0.45;0.40;;;;;;;14.86;49.24;100700.88;1735105;81;21636;-40
2021/04/18 10:14:30;;;;;;;0.20;0.20;;;;;;;14.69;49.83;100706.94;1731593;81;21691;-40
2021/04/18 10:17:00;;;;;;;0.75;0.55;;;;;;;14.63;50.28;100713.06;1737638;81;21171;-42
2021/04/18 10:19:29;;;;;;;0.57;0.30;;;;;;;14.63;50.71;100706.75;1732687;81;21178;-41
2021/04/18 10:22:08;;;;;;;0.53;0.53;;;;;;;14.59;50.69;100707.92;1718446;81;21167;-41
2021/04/18 10:24:50;;;;;;;2.08;0.72;;;;;;;14.60;50.61;100697.16;1815568;76;22658;-40
2021/04/18 10:27:21;;;;;;;1.62;0.72;;;;;;;14.54;51.08;100701.13;1711134;81;21127;-40
2021/04/18 10:29:50;;;;;;;;;;;;;;;14.54;51.07;100703.03;1683563;83;21177;-40
2021/04/18 10:32:18;;;;;;;1.30;0.85;;;;;;;14.52;51.19;100707.45;1709257;83;20494;-39
2021/04/18 10:34:47;;;;;;;0.75;0.75;;;;;;;14.47;50.46;100714.97;1712937;83;21553;-40
2021/04/18 10:37:15;;;;;;;0.37;0.37;;;;;;;14.36;50.76;100706.05;1716460;81;21115;-40
2021/04/18 10:39:43;;;;;;;1.57;1.10;;;;;;;14.30;51.22;100706.69;1748837;81;21131;-40
2021/04/18 10:42:11;;;;;;;3.42;1.07;;;;;;;14.31;51.67;100714.38;1713146;81;21158;-40
2021/04/18 10:44:39;;;;;;;0.90;0.88;;;;;;;14.32;51.07;100714.65;1710303;83;21155;-41
2021/04/18 10:47:16;;;;;;;1.30;0.72;;;;;;;14.39;50.84;100715.06;1746310;81;21556;-40
2021/04/18 10:49:41;;;;;;;0.45;0.42;;;;;;;14.45;50.22;100716.63;1715701;83;21186;-40
2021/04/18 10:52:09;;;;;;;1.02;0.65;;;;;;;14.55;50.80;100720.62;1710381;81;21521;-40
2021/04/18 10:54:37;;;;;;;1.55;0.53;;;;;;;14.71;50.25;100710.20;1749737;80;21190;-41
2021/04/18 10:57:05;;;;;;;1.25;0.65;;;;;;;14.88;50.12;100705.49;1717492;81;21130;-40
2021/04/18 10:59:32;;;;;;;1.45;0.80;;;;;;;14.98;50.10;100709.44;1746465;81;21181;-40
2021/04/18 11:02:00;;;;;;;0.55;0.55;;;;;;;15.07;49.92;100700.50;1730815;82;21134;-40
2021/04/18 11:04:28;;;;;;;0.47;0.15;;;;;;;15.27;49.05;100705.62;1726248;82;21609;-41
2021/04/18 11:06:56;;;;;;;1.02;0.62;;;;;;;15.47;49.27;100698.33;1733781;81;21512;-41
2021/04/18 11:09:24;;;;;;;0.68;0.68;;;;;;;15.64;48.27;100702.41;1685735;83;21129;-40
2021/04/18 11:11:51;;;;;;;0.42;0.40;;;;;;;15.83;47.77;100690.73;1743421;81;21091;-40
2021/04/18 11:14:19;;;;;;;1.60;0.40;;;;;;;15.96;47.43;100693.77;1749286;81;21134;-40
2021/04/18 11:16:46;;;;;;;0.23;0.20;;;;;;;15.97;47.49;100694.02;1749923;80;21143;-40
2021/04/18 11:19:14;;;;;;;2.10;0.47;;;;;;;16.10;47.08;100691.81;1711508;83;21178;-40
2021/04/18 11:21:42;;;;;;;0.57;0.57;;;;;;;16.08;44.39;100695.44;1725313;81;21217;-41
2021/04/18 11:24:10;;;;;;;0.20;0.20;;;;;;;15.90;43.88;100684.25;1738678;81;21203;-41
2021/04/18 11:26:37;;;;;;;0.33;0.33;;;;;;;15.77;45.79;100700.79;1730151;81;21148;-39
2021/04/18 11:29:06;;;;;;;0.82;0.55;;;;;;;15.65;45.33;100690.25;1725342;81;21137;-40
2021/04/18 11:31:33;;;;;;;0.55;0.55;;;;;;;15.49;45.61;100687.82;1750002;81;21124;-40
2021/04/18 11:34:01;;;;;;;0.47;0.45;;;;;;;15.36;45.32;100689.22;1708508;83;21750;-40
2021/04/18 11:36:29;;;;;;;0.78;0.78;;;;;;;15.20;46.28;100693.62;1707927;83;21482;-41
2021/04/18 11:38:59;;;;;;;0.40;0.40;;;;;;;15.08;46.64;100697.99;1693505;84;21320;-41
2021/04/18 11:41:28;;;;;;;0.47;0.42;;;;;;;14.93;47.19;100703.22;1708631;82;21162;-40
2021/04/18 11:43:57;;;;;;;2.40;0.53;;;;;;;14.78;47.58;100698.80;1733384;82;21099;-40